sensor_id;sensor_type;location;lat;lon;timestamp;temperature;humidity
33492;DHT22;20010;51.488;7.232;2022-09-01T00:00:10;18.00;95.60
33492;DHT22;20010;51.488;7.232;2022-09-01T00:02:40;17.90;95.80
33492;DHT22;20010;51.488;7.232;2022-09-01T00:05:09;17.90;96.00
33492;DHT22;20010;51.488;7.232;2022-09-01T00:07:39;17.90;95.90
33492;DHT22;20010;51.488;7.232;2022-09-01T00:10:08;17.90;95.80
33492;DHT22;20010;51.488;7.232;2022-09-01T00:12:38;17.80;96.00
33492;DHT22;20010;51.488;7.232;2022-09-01T00:15:08;17.80;96.40
33492;DHT22;20010;51.488;7.232;2022-09-01T00:17:36;17.80;96.20
33492;DHT22;20010;51.488;7.232;2022-09-01T00:20:09;17.80;96.20
33492;DHT22;20010;51.488;7.232;2022-09-01T00:22:47;17.80;96.10
33492;DHT22;20010;51.488;7.232;2022-09-01T00:25:16;17.80;96.20
33492;DHT22;20010;51.488;7.232;2022-09-01T00:27:49;17.80;96.30
33492;DHT22;20010;51.488;7.232;2022-09-01T00:30:25;17.80;96.40
33492;DHT22;20010;51.488;7.232;2022-09-01T00:32:53;17.80;96.60
33492;DHT22;20010;51.488;7.232;2022-09-01T00:35:20;17.80;96.30
33492;DHT22;20010;51.488;7.232;2022-09-01T00:37:49;17.80;96.60
33492;DHT22;20010;51.488;7.232;2022-09-01T00:40:18;17.80;96.60
33492;DHT22;20010;51.488;7.232;2022-09-01T00:42:46;17.80;96.50
33492;DHT22;20010;51.488;7.232;2022-09-01T00:45:15;17.70;96.70
33492;DHT22;20010;51.488;7.232;2022-09-01T00:47:48;17.70;96.90
33492;DHT22;20010;51.488;7.232;2022-09-01T00:50:18;17.70;96.80
33492;DHT22;20010;51.488;7.232;2022-09-01T00:52:49;17.70;96.90
33492;DHT22;20010;51.488;7.232;2022-09-01T00:55:28;17.70;96.90
33492;DHT22;20010;51.488;7.232;2022-09-01T00:58:01;17.70;97.00
33492;DHT22;20010;51.488;7.232;2022-09-01T01:00:35;17.60;97.20
33492;DHT22;20010;51.488;7.232;2022-09-01T01:03:10;17.60;97.60
33492;DHT22;20010;51.488;7.232;2022-09-01T01:05:53;17.60;97.50
33492;DHT22;20010;51.488;7.232;2022-09-01T01:08:29;17.60;97.60
33492;DHT22;20010;51.488;7.232;2022-09-01T01:11:13;17.50;97.60
33492;DHT22;20010;51.488;7.232;2022-09-01T01:16:40;17.40;98.10
33492;DHT22;20010;51.488;7.232;2022-09-01T01:19:48;17.40;98.20
33492;DHT22;20010;51.488;7.232;2022-09-01T01:25:56;17.30;98.60
33492;DHT22;20010;51.488;7.232;2022-09-01T01:28:33;17.20;98.80
33492;DHT22;20010;51.488;7.232;2022-09-01T01:31:17;17.10;99.00
33492;DHT22;20010;51.488;7.232;2022-09-01T01:33:53;17.10;99.30
33492;DHT22;20010;51.488;7.232;2022-09-01T01:36:31;17.00;99.60
33492;DHT22;20010;51.488;7.232;2022-09-01T01:39:16;17.00;99.90
33492;DHT22;20010;51.488;7.232;2022-09-01T01:41:45;16.90;99.90
33492;DHT22;20010;51.488;7.232;2022-09-01T01:44:17;16.90;99.90
33492;DHT22;20010;51.488;7.232;2022-09-01T01:46:48;16.90;99.90
33492;DHT22;20010;51.488;7.232;2022-09-01T01:49:19;16.80;99.90
33492;DHT22;20010;51.488;7.232;2022-09-01T01:51:50;16.80;99.90
33492;DHT22;20010;51.488;7.232;2022-09-01T01:54:25;16.60;99.90
33492;DHT22;20010;51.488;7.232;2022-09-01T01:57:02;16.60;99.90
33492;DHT22;20010;51.488;7.232;2022-09-01T01:59:30;16.60;99.90
33492;DHT22;20010;51.488;7.232;2022-09-01T02:02:01;16.50;99.90
33492;DHT22;20010;51.488;7.232;2022-09-01T02:04:31;16.50;99.90
33492;DHT22;20010;51.488;7.232;2022-09-01T02:07:02;16.50;99.90
33492;DHT22;20010;51.488;7.232;2022-09-01T02:09:32;16.40;99.90
33492;DHT22;20010;51.488;7.232;2022-09-01T02:12:00;16.30;99.90
33492;DHT22;20010;51.488;7.232;2022-09-01T02:14:32;16.40;99.90
33492;DHT22;20010;51.488;7.232;2022-09-01T02:17:00;16.30;99.90
33492;DHT22;20010;51.488;7.232;2022-09-01T02:19:33;16.30;99.90
33492;DHT22;20010;51.488;7.232;2022-09-01T02:22:06;16.20;99.90
33492;DHT22;20010;51.488;7.232;2022-09-01T02:24:38;16.10;99.90
33492;DHT22;20010;51.488;7.232;2022-09-01T02:27:17;16.10;99.90
33492;DHT22;20010;51.488;7.232;2022-09-01T02:29:49;16.00;99.90
33492;DHT22;20010;51.488;7.232;2022-09-01T02:32:21;16.00;99.90
33492;DHT22;20010;51.488;7.232;2022-09-01T02:34:51;16.00;99.90
33492;DHT22;20010;51.488;7.232;2022-09-01T02:37:32;16.00;99.90
33492;DHT22;20010;51.488;7.232;2022-09-01T02:40:03;15.90;99.90
33492;DHT22;20010;51.488;7.232;2022-09-01T02:42:31;15.90;99.90
33492;DHT22;20010;51.488;7.232;2022-09-01T02:45:09;15.90;99.90
33492;DHT22;20010;51.488;7.232;2022-09-01T02:47:43;15.90;99.90
33492;DHT22;20010;51.488;7.232;2022-09-01T02:50:14;15.90;99.90
33492;DHT22;20010;51.488;7.232;2022-09-01T02:52:52;15.90;99.90
33492;DHT22;20010;51.488;7.232;2022-09-01T02:55:20;15.90;99.90
33492;DHT22;20010;51.488;7.232;2022-09-01T02:57:50;15.90;99.90
33492;DHT22;20010;51.488;7.232;2022-09-01T03:00:24;15.80;99.90
33492;DHT22;20010;51.488;7.232;2022-09-01T03:03:00;15.80;99.90
33492;DHT22;20010;51.488;7.232;2022-09-01T03:05:31;15.80;99.90
33492;DHT22;20010;51.488;7.232;2022-09-01T03:08:05;15.80;99.90
33492;DHT22;20010;51.488;7.232;2022-09-01T03:10:37;15.70;99.90
33492;DHT22;20010;51.488;7.232;2022-09-01T03:13:14;15.60;99.90
33492;DHT22;20010;51.488;7.232;2022-09-01T03:15:50;15.60;99.90
33492;DHT22;20010;51.488;7.232;2022-09-01T03:18:17;15.60;99.90
33492;DHT22;20010;51.488;7.232;2022-09-01T03:20:46;15.50;99.90
33492;DHT22;20010;51.488;7.232;2022-09-01T03:23:17;15.60;99.90
33492;DHT22;20010;51.488;7.232;2022-09-01T03:25:47;15.60;99.90
33492;DHT22;20010;51.488;7.232;2022-09-01T03:28:16;15.50;99.90
33492;DHT22;20010;51.488;7.232;2022-09-01T03:30:48;15.50;99.90
33492;DHT22;20010;51.488;7.232;2022-09-01T03:33:22;15.50;99.90
33492;DHT22;20010;51.488;7.232;2022-09-01T03:35:53;15.50;99.90
33492;DHT22;20010;51.488;7.232;2022-09-01T03:38:23;15.50;99.90
33492;DHT22;20010;51.488;7.232;2022-09-01T03:40:57;15.50;99.90
33492;DHT22;20010;51.488;7.232;2022-09-01T03:43:32;15.40;99.90
33492;DHT22;20010;51.488;7.232;2022-09-01T03:46:03;15.40;99.90
33492;DHT22;20010;51.488;7.232;2022-09-01T03:48:32;15.30;99.90
33492;DHT22;20010;51.488;7.232;2022-09-01T03:51:01;15.40;99.90
33492;DHT22;20010;51.488;7.232;2022-09-01T03:53:33;15.30;99.90
33492;DHT22;20010;51.488;7.232;2022-09-01T03:56:02;15.30;99.90
33492;DHT22;20010;51.488;7.232;2022-09-01T03:58:31;15.30;99.90
33492;DHT22;20010;51.488;7.232;2022-09-01T04:00:59;15.20;99.90
33492;DHT22;20010;51.488;7.232;2022-09-01T04:03:37;15.20;99.90
33492;DHT22;20010;51.488;7.232;2022-09-01T04:06:08;15.30;99.90
33492;DHT22;20010;51.488;7.232;2022-09-01T04:08:38;15.30;99.90
33492;DHT22;20010;51.488;7.232;2022-09-01T04:11:14;15.30;99.90
33492;DHT22;20010;51.488;7.232;2022-09-01T04:13:46;15.20;99.90
33492;DHT22;20010;51.488;7.232;2022-09-01T04:16:29;15.20;99.90
33492;DHT22;20010;51.488;7.232;2022-09-01T04:19:18;15.20;99.90
33492;DHT22;20010;51.488;7.232;2022-09-01T04:21:59;15.30;99.90
33492;DHT22;20010;51.488;7.232;2022-09-01T04:24:26;15.30;99.90
33492;DHT22;20010;51.488;7.232;2022-09-01T04:26:55;15.30;99.90
33492;DHT22;20010;51.488;7.232;2022-09-01T04:29:28;15.20;99.90
33492;DHT22;20010;51.488;7.232;2022-09-01T04:32:04;15.20;99.90
33492;DHT22;20010;51.488;7.232;2022-09-01T04:34:35;15.20;99.90
33492;DHT22;20010;51.488;7.232;2022-09-01T04:39:35;15.20;99.90
33492;DHT22;20010;51.488;7.232;2022-09-01T04:42:11;15.20;99.90
33492;DHT22;20010;51.488;7.232;2022-09-01T04:44:43;15.20;99.90
33492;DHT22;20010;51.488;7.232;2022-09-01T04:47:18;15.20;99.90
33492;DHT22;20010;51.488;7.232;2022-09-01T04:49:48;15.20;99.90
33492;DHT22;20010;51.488;7.232;2022-09-01T04:52:16;15.20;99.90
33492;DHT22;20010;51.488;7.232;2022-09-01T04:54:43;15.20;99.90
33492;DHT22;20010;51.488;7.232;2022-09-01T04:57:14;15.20;99.90
33492;DHT22;20010;51.488;7.232;2022-09-01T04:59:42;15.10;99.90
33492;DHT22;20010;51.488;7.232;2022-09-01T05:02:26;15.20;99.90
33492;DHT22;20010;51.488;7.232;2022-09-01T05:04:54;15.10;99.90
33492;DHT22;20010;51.488;7.232;2022-09-01T05:07:25;15.10;99.90
33492;DHT22;20010;51.488;7.232;2022-09-01T05:09:53;15.10;99.90
33492;DHT22;20010;51.488;7.232;2022-09-01T05:12:28;15.10;99.90
33492;DHT22;20010;51.488;7.232;2022-09-01T05:14:59;15.20;99.90
33492;DHT22;20010;51.488;7.232;2022-09-01T05:17:34;15.10;99.90
33492;DHT22;20010;51.488;7.232;2022-09-01T05:20:07;15.20;99.90
33492;DHT22;20010;51.488;7.232;2022-09-01T05:22:39;15.10;99.90
33492;DHT22;20010;51.488;7.232;2022-09-01T05:25:08;15.00;99.90
33492;DHT22;20010;51.488;7.232;2022-09-01T05:27:42;15.10;99.90
33492;DHT22;20010;51.488;7.232;2022-09-01T05:30:19;15.10;99.90
33492;DHT22;20010;51.488;7.232;2022-09-01T05:32:47;15.10;99.90
33492;DHT22;20010;51.488;7.232;2022-09-01T05:35:16;15.10;99.90
33492;DHT22;20010;51.488;7.232;2022-09-01T05:37:45;15.10;99.90
33492;DHT22;20010;51.488;7.232;2022-09-01T05:40:19;15.10;99.90
33492;DHT22;20010;51.488;7.232;2022-09-01T05:42:49;15.10;99.90
33492;DHT22;20010;51.488;7.232;2022-09-01T05:45:16;15.10;99.90
33492;DHT22;20010;51.488;7.232;2022-09-01T05:47:46;15.20;99.90
33492;DHT22;20010;51.488;7.232;2022-09-01T05:50:15;15.20;99.90
33492;DHT22;20010;51.488;7.232;2022-09-01T05:52:45;15.20;99.90
33492;DHT22;20010;51.488;7.232;2022-09-01T05:55:14;15.10;99.90
33492;DHT22;20010;51.488;7.232;2022-09-01T05:57:42;15.10;99.90
33492;DHT22;20010;51.488;7.232;2022-09-01T06:00:18;15.20;99.90
33492;DHT22;20010;51.488;7.232;2022-09-01T06:02:47;15.20;99.90
33492;DHT22;20010;51.488;7.232;2022-09-01T06:05:23;15.20;99.90
33492;DHT22;20010;51.488;7.232;2022-09-01T06:07:54;15.20;99.90
33492;DHT22;20010;51.488;7.232;2022-09-01T06:10:23;15.20;99.90
33492;DHT22;20010;51.488;7.232;2022-09-01T06:12:50;15.20;99.90
33492;DHT22;20010;51.488;7.232;2022-09-01T06:15:22;15.20;99.90
33492;DHT22;20010;51.488;7.232;2022-09-01T06:17:52;15.30;99.90
33492;DHT22;20010;51.488;7.232;2022-09-01T06:20:24;15.30;99.90
33492;DHT22;20010;51.488;7.232;2022-09-01T06:22:56;15.30;99.90
33492;DHT22;20010;51.488;7.232;2022-09-01T06:25:24;15.40;99.90
33492;DHT22;20010;51.488;7.232;2022-09-01T06:27:58;15.40;99.90
33492;DHT22;20010;51.488;7.232;2022-09-01T06:30:31;15.50;99.90
33492;DHT22;20010;51.488;7.232;2022-09-01T06:33:04;15.50;99.90
33492;DHT22;20010;51.488;7.232;2022-09-01T06:35:42;15.50;99.90
33492;DHT22;20010;51.488;7.232;2022-09-01T06:38:12;15.50;99.90
33492;DHT22;20010;51.488;7.232;2022-09-01T06:40:43;15.50;99.90
33492;DHT22;20010;51.488;7.232;2022-09-01T06:43:20;15.50;99.90
33492;DHT22;20010;51.488;7.232;2022-09-01T06:45:49;15.50;99.90
33492;DHT22;20010;51.488;7.232;2022-09-01T06:48:22;15.60;99.90
33492;DHT22;20010;51.488;7.232;2022-09-01T06:50:54;15.60;99.90
33492;DHT22;20010;51.488;7.232;2022-09-01T06:53:49;15.60;99.90
33492;DHT22;20010;51.488;7.232;2022-09-01T06:56:27;15.70;99.90
33492;DHT22;20010;51.488;7.232;2022-09-01T06:58:58;15.70;99.90
33492;DHT22;20010;51.488;7.232;2022-09-01T07:01:29;15.80;99.90
33492;DHT22;20010;51.488;7.232;2022-09-01T07:04:01;15.90;99.90
33492;DHT22;20010;51.488;7.232;2022-09-01T07:06:31;15.90;99.90
33492;DHT22;20010;51.488;7.232;2022-09-01T07:09:21;16.00;99.90
33492;DHT22;20010;51.488;7.232;2022-09-01T07:12:11;16.10;99.90
33492;DHT22;20010;51.488;7.232;2022-09-01T07:14:56;16.20;99.90
33492;DHT22;20010;51.488;7.232;2022-09-01T07:18:00;16.30;99.90
33492;DHT22;20010;51.488;7.232;2022-09-01T07:20:27;16.30;99.90
33492;DHT22;20010;51.488;7.232;2022-09-01T07:23:24;16.40;99.90
33492;DHT22;20010;51.488;7.232;2022-09-01T07:25:55;16.50;99.90
33492;DHT22;20010;51.488;7.232;2022-09-01T07:28:49;16.50;99.90
33492;DHT22;20010;51.488;7.232;2022-09-01T07:31:37;16.60;99.90
33492;DHT22;20010;51.488;7.232;2022-09-01T07:34:26;16.70;99.90
33492;DHT22;20010;51.488;7.232;2022-09-01T07:37:15;16.80;99.90
33492;DHT22;20010;51.488;7.232;2022-09-01T07:40:06;16.90;99.90
33492;DHT22;20010;51.488;7.232;2022-09-01T07:42:55;17.10;99.90
33492;DHT22;20010;51.488;7.232;2022-09-01T07:45:36;17.20;99.90
33492;DHT22;20010;51.488;7.232;2022-09-01T07:48:25;17.30;99.90
33492;DHT22;20010;51.488;7.232;2022-09-01T07:51:15;17.40;99.90
33492;DHT22;20010;51.488;7.232;2022-09-01T07:54:04;17.50;99.90
33492;DHT22;20010;51.488;7.232;2022-09-01T07:56:38;17.60;99.90
33492;DHT22;20010;51.488;7.232;2022-09-01T07:59:09;17.70;99.90
33492;DHT22;20010;51.488;7.232;2022-09-01T08:01:50;17.80;99.90
33492;DHT22;20010;51.488;7.232;2022-09-01T08:04:21;17.90;99.90
33492;DHT22;20010;51.488;7.232;2022-09-01T08:06:49;17.90;99.90
33492;DHT22;20010;51.488;7.232;2022-09-01T08:09:16;18.00;99.90
33492;DHT22;20010;51.488;7.232;2022-09-01T08:12:07;18.20;99.90
33492;DHT22;20010;51.488;7.232;2022-09-01T08:14:40;18.40;99.90
33492;DHT22;20010;51.488;7.232;2022-09-01T08:17:08;18.50;99.90
33492;DHT22;20010;51.488;7.232;2022-09-01T08:20:00;18.60;99.90
33492;DHT22;20010;51.488;7.232;2022-09-01T08:22:28;18.70;99.90
33492;DHT22;20010;51.488;7.232;2022-09-01T08:25:00;18.80;99.90
33492;DHT22;20010;51.488;7.232;2022-09-01T08:27:35;18.80;99.90
33492;DHT22;20010;51.488;7.232;2022-09-01T08:30:07;18.90;99.90
33492;DHT22;20010;51.488;7.232;2022-09-01T08:32:44;19.10;99.90
33492;DHT22;20010;51.488;7.232;2022-09-01T08:35:12;19.20;99.90
33492;DHT22;20010;51.488;7.232;2022-09-01T08:37:46;19.20;99.90
33492;DHT22;20010;51.488;7.232;2022-09-01T08:40:18;19.30;99.90
33492;DHT22;20010;51.488;7.232;2022-09-01T08:43:19;19.40;99.90
33492;DHT22;20010;51.488;7.232;2022-09-01T08:45:57;19.50;99.90
33492;DHT22;20010;51.488;7.232;2022-09-01T08:48:40;19.60;99.90
33492;DHT22;20010;51.488;7.232;2022-09-01T08:54:23;19.80;99.90
33492;DHT22;20010;51.488;7.232;2022-09-01T08:57:16;19.90;99.90
33492;DHT22;20010;51.488;7.232;2022-09-01T08:59:46;19.90;99.90
33492;DHT22;20010;51.488;7.232;2022-09-01T09:02:33;20.00;99.80
33492;DHT22;20010;51.488;7.232;2022-09-01T09:07:57;20.20;99.20
33492;DHT22;20010;51.488;7.232;2022-09-01T09:10:47;20.40;98.80
33492;DHT22;20010;51.488;7.232;2022-09-01T09:16:32;20.60;98.80
33492;DHT22;20010;51.488;7.232;2022-09-01T09:19:23;20.70;98.40
33492;DHT22;20010;51.488;7.232;2022-09-01T09:21:55;20.90;98.20
33492;DHT22;20010;51.488;7.232;2022-09-01T09:27:37;21.10;96.70
33492;DHT22;20010;51.488;7.232;2022-09-01T09:33:00;21.20;96.30
33492;DHT22;20010;51.488;7.232;2022-09-01T09:35:52;21.40;96.00
33492;DHT22;20010;51.488;7.232;2022-09-01T09:38:25;21.50;95.50
33492;DHT22;20010;51.488;7.232;2022-09-01T09:41:18;21.60;95.30
33492;DHT22;20010;51.488;7.232;2022-09-01T09:46:42;21.70;95.30
33492;DHT22;20010;51.488;7.232;2022-09-01T09:54:37;21.90;94.90
33492;DHT22;20010;51.488;7.232;2022-09-01T09:59:53;22.10;94.40
33492;DHT22;20010;51.488;7.232;2022-09-01T10:02:31;22.20;94.20
33492;DHT22;20010;51.488;7.232;2022-09-01T10:07:49;22.40;94.20
33492;DHT22;20010;51.488;7.232;2022-09-01T10:10:51;22.50;93.40
33492;DHT22;20010;51.488;7.232;2022-09-01T10:13:28;22.60;93.60
33492;DHT22;20010;51.488;7.232;2022-09-01T10:16:08;22.70;93.60
33492;DHT22;20010;51.488;7.232;2022-09-01T10:18:49;22.80;93.40
33492;DHT22;20010;51.488;7.232;2022-09-01T10:21:23;22.90;93.90
33492;DHT22;20010;51.488;7.232;2022-09-01T10:23:54;23.00;93.70
33492;DHT22;20010;51.488;7.232;2022-09-01T10:26:43;23.10;93.40
33492;DHT22;20010;51.488;7.232;2022-09-01T10:31:54;23.20;93.00
33492;DHT22;20010;51.488;7.232;2022-09-01T10:34:43;23.30;93.00
33492;DHT22;20010;51.488;7.232;2022-09-01T10:37:12;23.30;92.50
33492;DHT22;20010;51.488;7.232;2022-09-01T10:40:17;23.30;92.70
33492;DHT22;20010;51.488;7.232;2022-09-01T10:45:43;23.50;92.90
33492;DHT22;20010;51.488;7.232;2022-09-01T10:48:31;23.70;92.80
33492;DHT22;20010;51.488;7.232;2022-09-01T10:59:28;24.20;91.30
33492;DHT22;20010;51.488;7.232;2022-09-01T11:07:33;24.50;91.10
33492;DHT22;20010;51.488;7.232;2022-09-01T11:10:38;24.40;91.10
33492;DHT22;20010;51.488;7.232;2022-09-01T11:13:38;24.70;91.00
33492;DHT22;20010;51.488;7.232;2022-09-01T11:22:22;24.60;89.20
33492;DHT22;20010;51.488;7.232;2022-09-01T11:36:17;25.00;86.70
33492;DHT22;20010;51.488;7.232;2022-09-01T11:47:20;25.30;86.10
33492;DHT22;20010;51.488;7.232;2022-09-01T11:50:01;25.50;85.90
33492;DHT22;20010;51.488;7.232;2022-09-01T11:52:35;25.70;84.30
33492;DHT22;20010;51.488;7.232;2022-09-01T11:55:05;25.70;85.00
33492;DHT22;20010;51.488;7.232;2022-09-01T11:57:40;25.90;83.40
33492;DHT22;20010;51.488;7.232;2022-09-01T12:00:15;25.90;83.20
33492;DHT22;20010;51.488;7.232;2022-09-01T12:02:51;26.00;82.30
33492;DHT22;20010;51.488;7.232;2022-09-01T12:05:35;25.90;81.50
33492;DHT22;20010;51.488;7.232;2022-09-01T12:08:10;26.00;82.00
33492;DHT22;20010;51.488;7.232;2022-09-01T12:10:42;26.10;82.50
33492;DHT22;20010;51.488;7.232;2022-09-01T12:13:21;26.20;81.00
33492;DHT22;20010;51.488;7.232;2022-09-01T12:15:56;26.30;82.00
33492;DHT22;20010;51.488;7.232;2022-09-01T12:18:49;26.50;80.20
33492;DHT22;20010;51.488;7.232;2022-09-01T12:21:55;26.30;79.70
33492;DHT22;20010;51.488;7.232;2022-09-01T12:24:24;26.50;79.00
33492;DHT22;20010;51.488;7.232;2022-09-01T12:26:55;26.40;77.80
33492;DHT22;20010;51.488;7.232;2022-09-01T12:29:26;26.60;78.20
33492;DHT22;20010;51.488;7.232;2022-09-01T12:32:00;26.70;77.70
33492;DHT22;20010;51.488;7.232;2022-09-01T12:34:41;27.00;77.00
33492;DHT22;20010;51.488;7.232;2022-09-01T12:39:50;27.30;76.30
33492;DHT22;20010;51.488;7.232;2022-09-01T12:44:56;27.40;75.10
33492;DHT22;20010;51.488;7.232;2022-09-01T12:52:53;27.70;73.20
33492;DHT22;20010;51.488;7.232;2022-09-01T12:55:33;27.80;72.80
33492;DHT22;20010;51.488;7.232;2022-09-01T12:58:22;27.90;71.60
33492;DHT22;20010;51.488;7.232;2022-09-01T13:03:25;28.30;69.90
33492;DHT22;20010;51.488;7.232;2022-09-01T13:05:57;28.40;69.70
33492;DHT22;20010;51.488;7.232;2022-09-01T13:08:32;28.50;68.70
33492;DHT22;20010;51.488;7.232;2022-09-01T13:11:16;28.70;68.10
33492;DHT22;20010;51.488;7.232;2022-09-01T13:13:55;28.60;67.30
33492;DHT22;20010;51.488;7.232;2022-09-01T13:16:22;28.80;67.80
33492;DHT22;20010;51.488;7.232;2022-09-01T13:18:51;28.70;66.30
33492;DHT22;20010;51.488;7.232;2022-09-01T13:21:40;28.60;66.60
33492;DHT22;20010;51.488;7.232;2022-09-01T13:24:13;28.80;65.50
33492;DHT22;20010;51.488;7.232;2022-09-01T13:26:44;29.00;65.10
33492;DHT22;20010;51.488;7.232;2022-09-01T13:29:42;29.10;63.90
33492;DHT22;20010;51.488;7.232;2022-09-01T13:32:15;29.30;64.40
33492;DHT22;20010;51.488;7.232;2022-09-01T13:34:51;29.40;62.90
33492;DHT22;20010;51.488;7.232;2022-09-01T13:37:20;29.60;62.70
33492;DHT22;20010;51.488;7.232;2022-09-01T13:39:48;29.70;62.60
33492;DHT22;20010;51.488;7.232;2022-09-01T13:42:19;29.90;60.60
33492;DHT22;20010;51.488;7.232;2022-09-01T13:44:54;30.10;60.80
33492;DHT22;20010;51.488;7.232;2022-09-01T13:47:22;30.10;59.80
33492;DHT22;20010;51.488;7.232;2022-09-01T13:49:56;30.30;59.30
33492;DHT22;20010;51.488;7.232;2022-09-01T13:52:36;30.30;59.20
33492;DHT22;20010;51.488;7.232;2022-09-01T13:55:06;30.60;58.30
33492;DHT22;20010;51.488;7.232;2022-09-01T13:57:33;30.70;58.30
33492;DHT22;20010;51.488;7.232;2022-09-01T14:00:09;30.70;58.00
33492;DHT22;20010;51.488;7.232;2022-09-01T14:02:47;30.80;57.60
33492;DHT22;20010;51.488;7.232;2022-09-01T14:05:28;30.70;56.90
33492;DHT22;20010;51.488;7.232;2022-09-01T14:07:57;30.70;56.40
33492;DHT22;20010;51.488;7.232;2022-09-01T14:10:26;30.70;56.30
33492;DHT22;20010;51.488;7.232;2022-09-01T14:12:55;30.60;56.20
33492;DHT22;20010;51.488;7.232;2022-09-01T14:15:22;30.70;55.80
33492;DHT22;20010;51.488;7.232;2022-09-01T14:17:54;30.40;56.00
33492;DHT22;20010;51.488;7.232;2022-09-01T14:20:25;30.30;55.60
33492;DHT22;20010;51.488;7.232;2022-09-01T14:22:53;30.10;56.00
33492;DHT22;20010;51.488;7.232;2022-09-01T14:25:23;30.10;56.50
33492;DHT22;20010;51.488;7.232;2022-09-01T14:27:50;29.80;56.50
33492;DHT22;20010;51.488;7.232;2022-09-01T14:30:21;30.00;56.70
33492;DHT22;20010;51.488;7.232;2022-09-01T14:32:56;30.10;55.40
33492;DHT22;20010;51.488;7.232;2022-09-01T14:35:27;29.90;55.80
33492;DHT22;20010;51.488;7.232;2022-09-01T14:38:02;29.90;55.70
33492;DHT22;20010;51.488;7.232;2022-09-01T14:40:31;29.80;55.70
33492;DHT22;20010;51.488;7.232;2022-09-01T14:43:07;29.70;56.30
33492;DHT22;20010;51.488;7.232;2022-09-01T14:45:39;29.80;55.70
33492;DHT22;20010;51.488;7.232;2022-09-01T14:48:11;29.80;55.70
33492;DHT22;20010;51.488;7.232;2022-09-01T14:50:41;29.90;56.00
33492;DHT22;20010;51.488;7.232;2022-09-01T14:53:11;30.10;54.80
33492;DHT22;20010;51.488;7.232;2022-09-01T14:55:44;29.70;54.90
33492;DHT22;20010;51.488;7.232;2022-09-01T14:58:15;29.70;55.30
33492;DHT22;20010;51.488;7.232;2022-09-01T15:00:44;29.60;55.50
33492;DHT22;20010;51.488;7.232;2022-09-01T15:03:11;29.50;54.90
33492;DHT22;20010;51.488;7.232;2022-09-01T15:05:48;29.50;54.70
33492;DHT22;20010;51.488;7.232;2022-09-01T15:08:21;29.50;54.60
33492;DHT22;20010;51.488;7.232;2022-09-01T15:11:15;29.40;55.10
33492;DHT22;20010;51.488;7.232;2022-09-01T15:13:46;29.30;54.80
33492;DHT22;20010;51.488;7.232;2022-09-01T15:16:23;29.30;54.40
33492;DHT22;20010;51.488;7.232;2022-09-01T15:18:52;29.10;54.10
33492;DHT22;20010;51.488;7.232;2022-09-01T15:21:27;29.10;55.20
33492;DHT22;20010;51.488;7.232;2022-09-01T15:23:54;29.30;55.20
33492;DHT22;20010;51.488;7.232;2022-09-01T15:26:22;29.30;54.70
33492;DHT22;20010;51.488;7.232;2022-09-01T15:28:50;29.30;54.70
33492;DHT22;20010;51.488;7.232;2022-09-01T15:31:25;29.50;54.80
33492;DHT22;20010;51.488;7.232;2022-09-01T15:34:11;29.50;54.60
33492;DHT22;20010;51.488;7.232;2022-09-01T15:36:44;29.70;54.50
33492;DHT22;20010;51.488;7.232;2022-09-01T15:39:11;29.60;53.60
33492;DHT22;20010;51.488;7.232;2022-09-01T15:41:39;29.50;53.50
33492;DHT22;20010;51.488;7.232;2022-09-01T15:44:09;29.60;54.60
33492;DHT22;20010;51.488;7.232;2022-09-01T15:46:37;29.60;53.70
33492;DHT22;20010;51.488;7.232;2022-09-01T15:49:12;29.60;54.30
33492;DHT22;20010;51.488;7.232;2022-09-01T15:51:41;29.60;54.10
33492;DHT22;20010;51.488;7.232;2022-09-01T15:54:28;29.70;52.60
33492;DHT22;20010;51.488;7.232;2022-09-01T15:56:56;29.70;51.90
33492;DHT22;20010;51.488;7.232;2022-09-01T15:59:25;29.50;53.10
33492;DHT22;20010;51.488;7.232;2022-09-01T16:01:54;29.40;52.50
33492;DHT22;20010;51.488;7.232;2022-09-01T16:04:22;29.40;52.50
33492;DHT22;20010;51.488;7.232;2022-09-01T16:06:53;29.40;52.10
33492;DHT22;20010;51.488;7.232;2022-09-01T16:09:23;29.20;52.40
33492;DHT22;20010;51.488;7.232;2022-09-01T16:11:52;29.10;52.90
33492;DHT22;20010;51.488;7.232;2022-09-01T16:14:24;29.30;52.30
33492;DHT22;20010;51.488;7.232;2022-09-01T16:17:06;29.30;52.40
33492;DHT22;20010;51.488;7.232;2022-09-01T16:19:58;29.40;52.40
33492;DHT22;20010;51.488;7.232;2022-09-01T16:22:57;29.20;52.00
33492;DHT22;20010;51.488;7.232;2022-09-01T16:25:31;29.30;52.40
33492;DHT22;20010;51.488;7.232;2022-09-01T16:28:33;29.00;52.10
33492;DHT22;20010;51.488;7.232;2022-09-01T16:31:13;28.90;52.20
33492;DHT22;20010;51.488;7.232;2022-09-01T16:33:54;28.70;52.10
33492;DHT22;20010;51.488;7.232;2022-09-01T16:55:48;26.90;55.30
33492;DHT22;20010;51.488;7.232;2022-09-01T16:58:35;26.50;55.50
33492;DHT22;20010;51.488;7.232;2022-09-01T17:01:46;26.30;55.80
33492;DHT22;20010;51.488;7.232;2022-09-01T17:07:25;25.70;56.90
33492;DHT22;20010;51.488;7.232;2022-09-01T17:15:13;25.30;58.60
33492;DHT22;20010;51.488;7.232;2022-09-01T17:20:12;25.10;58.40
33492;DHT22;20010;51.488;7.232;2022-09-01T17:22:52;25.00;58.50
33492;DHT22;20010;51.488;7.232;2022-09-01T17:25:31;24.90;59.00
33492;DHT22;20010;51.488;7.232;2022-09-01T17:28:25;24.80;59.30
33492;DHT22;20010;51.488;7.232;2022-09-01T17:30:59;24.70;59.80
33492;DHT22;20010;51.488;7.232;2022-09-01T17:42:27;24.20;62.40
33492;DHT22;20010;51.488;7.232;2022-09-01T17:45:19;24.10;62.80
33492;DHT22;20010;51.488;7.232;2022-09-01T17:48:01;24.00;63.40
33492;DHT22;20010;51.488;7.232;2022-09-01T17:50:54;23.80;63.90
33492;DHT22;20010;51.488;7.232;2022-09-01T17:53:38;23.70;64.20
33492;DHT22;20010;51.488;7.232;2022-09-01T18:01:41;23.40;65.50
33492;DHT22;20010;51.488;7.232;2022-09-01T18:10:17;23.10;66.00
33492;DHT22;20010;51.488;7.232;2022-09-01T18:12:58;23.00;66.50
33492;DHT22;20010;51.488;7.232;2022-09-01T18:15:30;22.90;66.70
33492;DHT22;20010;51.488;7.232;2022-09-01T18:18:13;22.80;66.80
33492;DHT22;20010;51.488;7.232;2022-09-01T18:20:45;22.70;67.10
33492;DHT22;20010;51.488;7.232;2022-09-01T18:23:17;22.60;67.40
33492;DHT22;20010;51.488;7.232;2022-09-01T18:28:41;22.40;67.50
33492;DHT22;20010;51.488;7.232;2022-09-01T18:31:50;22.30;67.80
33492;DHT22;20010;51.488;7.232;2022-09-01T18:40:24;22.10;69.00
33492;DHT22;20010;51.488;7.232;2022-09-01T18:43:06;22.10;69.10
33492;DHT22;20010;51.488;7.232;2022-09-01T18:45:58;22.00;69.20
33492;DHT22;20010;51.488;7.232;2022-09-01T18:51:19;21.90;69.40
33492;DHT22;20010;51.488;7.232;2022-09-01T18:54:06;21.80;69.80
33492;DHT22;20010;51.488;7.232;2022-09-01T19:02:42;21.70;70.00
33492;DHT22;20010;51.488;7.232;2022-09-01T19:14:28;21.40;70.30